Fiskdale, Massachusetts
Current Conditions -  °F | °C
As of 6:54 AM on Sunday 23 Nov 2014 (Local Time) from KORH Reporting Station
Broken Clouds Broken Clouds  
Wind Chill: 30°   Ceiling: 3900
Heat Index: 36°   Visibility: 10mi
Dew Point: 27°   Wind: 8mph
Humidity: 70%   Direction: 220°SW
Pressure: 30.09"   Gusts: NA
Location:  42.12°N, 72.11°W
Report Text: KORH 231154Z 22007KT 10SM BKN039 02/M03 A3009 RMK AO2 SLP200 60000 T00221028 10044 20022 53011 $
Loading
Personal Weather Stations






























Interactive Weather Map New forecast layout! Learn more

10-Day Weather Forecast

Advertisements
Track Severe Weather on mobile